Weather observations for the past three days for
Hettinger, Hettinger Municipal Airport
Imperial (Metric)
Date Time (mdt) Wind (mph) Vis. (mi.) Weather Sky Cond. Temperature (ºF) Relative Humidity Wind Chill (°F) Heat Index (°F) Pressure Precipitation (in)
Air Dwpt 6 hour altimeter (in) sea level (mb) 1 hr 3 hr 6 hr
Max. Min.
10 09:53 SE 9 10.00 A Few Clouds FEW065 55 28 36% 30.19 1023.2
10 08:53 SE 9 10.00 Mostly Cloudy BKN100 52 26.1 37% 30.19 1022.9
10 07:53 E 10 10.00 Overcast OVC085 46 27 47% 42 30.18 1022.7
10 06:53 E 5 10.00 Overcast BKN095 OVC110 42.1 27 55% 40 30.18 1022.3
10 05:53 E 8 10.00 Mostly Cloudy FEW075 SCT100 BKN120 39 26.1 39.9 30.9 60% 34 30.15 1021.8
10 04:53 SW 3 10.00 Overcast OVC060 37.9 28 68% 30.15 1021.6
10 03:53 NE 7 10.00 Mostly Cloudy BKN065 37 28 70% 32 30.14 1021.2
10 02:53 Calm 10.00 A Few Clouds FEW110 32 28 85% 30.12 1020.8
10 01:53 Calm 10.00 Fair CLR 35.1 28.9 78% 30.11 1020.4
10 00:53 W 6 10.00 A Few Clouds FEW110 35.1 28.9 78% 31 30.1 1020.2
09 23:53 Calm 10.00 Fair CLR 34 30 60.1 34 85% 30.1 1020.1
09 22:53 W 3 10.00 Fair CLR 37 30 76% 30.08 1019.6
09 21:53 W 3 10.00 Fair CLR 41 32 70% 30.08 1019.4
09 20:53 N 6 10.00 Fair CLR 45 32 61% 42 30.06 1018.6
09 19:53 N 7 10.00 Partly Cloudy SCT080 51.1 34 52% 30.03 1017.8
09 17:53 NW 16 G 25 10.00 Partly Cloudy SCT075 59 32 64 55.9 36% 30.02 1017.2
09 16:53 NW 18 G 24 10.00 Overcast OVC075 59 32 36% 30.01 1016.5
09 15:53 NW 18 G 28 10.00 Mostly Cloudy BKN075 60.1 32 35% 30 1016.2
09 14:53 NW 18 G 26 10.00 A Few Clouds FEW075 64 32 30% 30 1015.9
09 13:53 N 17 G 26 10.00 Fair CLR 60.1 30.9 33% 30 1016.1
09 12:53 N 20 G 35 10.00 Fair CLR 59 28.9 32% 30 1016.0
09 11:53 N 14 G 24 10.00 Fair CLR 57 30.9 57 37.9 37% 30.01 1016.2
09 10:53 N 13 10.00 Fair CLR 54 35.1 49% 30 1016.1
09 09:53 NW 15 10.00 Fair CLR 51.1 37 59% 29.99 1015.8
09 08:53 NW 9 10.00 Fair CLR 48 39 71% 44 29.98 1015.6
09 07:53 N 7 10.00 Fair CLR 45 41 86% 42 29.96 1014.6
09 06:53 N 6 10.00 Mostly Cloudy BKN090 43 39.9 89% 40 29.94 1013.7
09 05:53 N 5 10.00 Partly Cloudy SCT095 37.9 37 50 37 97% 35 29.9 1012.5 0.07
09 04:53 N 9 10.00 Fair CLR 42.1 39 89% 37 29.86 1011.0
09 03:53 N 8 10.00 A Few Clouds FEW110 43 39.9 89% 39 29.84 1010.3 0.01
09 02:53 Calm 10.00 Overcast OVC085 44.1 43 96% 29.82 1009.6 0.03 0.06
09 01:53 NE 8 7.00 Rain SCT055 OVC070 45 42.1 90% 41 29.81 1009.1 0.03
09 00:53 NE 9 10.00 Mostly Cloudy FEW070 BKN100 48 39 71% 44 29.81 1009.1
08 23:53 E 14 10.00 Light Rain SCT060 BKN080 OVC095 50 39 68 46.9 66% 45 29.78 1008.1
08 22:53 N 18 G 26 10.00 Mostly Cloudy BKN110 54 36 51% 29.77 1007.4
08 21:53 N 13 10.00 Overcast BKN095 OVC110 55.9 34 44% 29.75 1006.8
08 20:53 Calm 10.00 Fair CLR 52 30.9 45% 29.72 1006.3
08 19:53 NW 8 10.00 Overcast OVC100 61 33.1 35% 29.73 1006.2
08 18:53 W 18 G 26 10.00 Fair CLR 66 28.9 25% 29.74 1006.5
08 17:53 NW 12 G 26 10.00 Fair CLR 68 27 70 64.9 21% 29.75 1007.6
08 16:53 W 14 10.00 Fair CLR 69.1 26.1 20% 29.77 1008.1
08 15:53 W 16 G 24 10.00 Fair CLR 69.1 26.1 20% 29.79 1008.8
08 14:53 NW 16 G 22 10.00 Fair CLR 68 27 21% 29.81 1009.6
08 13:53 NW 13 G 22 10.00 Fair CLR 66.9 25 20% 29.83 1010.3
08 12:53 NW 9 G 23 10.00 Fair CLR 66 27 23% 29.84 1011.0
08 11:53 N 17 G 26 10.00 Fair CLR 64.9 25 66 37.9 22% 29.85 1011.3
08 10:53 N 13 G 24 10.00 Fair CLR 64 26.1 24% 29.85 1011.1
08 09:53 N 16 G 26 10.00 Fair CLR 61 28 29% 29.86 1011.2
08 08:53 NW 15 G 22 10.00 Fair CLR 57.9 33.1 39% 29.84 1010.4
08 07:53 NW 21 G 32 10.00 Fair and Breezy CLR 53.1 37 55% 29.83 1009.9
08 06:53 NW 15 10.00 Fair CLR 48 36 63% 43 29.81 1009.3
08 05:53 NW 9 10.00 Fair CLR 37.9 30.9 41 30 76% 32 29.79 1008.9
08 04:53 NW 8 10.00 Fair CLR 36 28.9 76% 30 29.79 1009.1
08 03:53 NW 5 10.00 Fair CLR 35.1 27 72% 32 29.79 1009.2
08 02:53 NW 5 10.00 Partly Cloudy SCT090 37.9 26.1 62% 35 29.79 1009.1
08 01:53 Calm 10.00 Overcast OVC095 37 27 67% 29.8 1009.6
08 00:53 W 3 10.00 Mostly Cloudy BKN120 32 25 75% 29.82 1010.5
07 23:53 W 3 10.00 Fair CLR 34 26.1 64.9 33.1 73% 29.81 1010.3
07 22:53 NW 5 10.00 Fair CLR 39.9 25 55% 37 29.82 1010.3
07 21:53 Calm 10.00 A Few Clouds FEW110 43 27 53% 29.81 1010.0
07 20:53 Calm 10.00 Overcast BKN085 OVC100 51.1 25 36% 29.8 1009.4
07 19:53 N 10 10.00 Mostly Cloudy FEW080 BKN100 BKN110 57.9 23 26% 29.79 1009.1
07 18:53 NW 10 10.00 Mostly Cloudy BKN100 61 26.1 26% 29.77 1009.1
07 17:53 NW 15 10.00 Mostly Cloudy BKN100 64.9 25 66 57 22% 29.77 1009.2
07 16:53 W 17 G 23 10.00 A Few Clouds FEW100 64 23 21% 29.77 1009.3
07 15:53 SW 10 G 21 10.00 Fair CLR 64.9 23 20% 29.78 1009.6
07 14:53 Calm 10.00 Fair CLR 64 21 19% 29.81 1010.3
07 13:53 Vrbl 6 G 17 10.00 Fair CLR 62.1 19.9 20% 29.82 1010.6
07 12:53 Vrbl 5 10.00 Fair CLR 60.1 19 20% 29.83 1011.2
07 11:53 Calm 10.00 Fair CLR 57.9 18 57.9 19.9 21% 29.84 1011.5
07 10:53 Vrbl 6 10.00 Fair CLR 57 17.1 21% 29.85 1011.8
Date Time (mdt) Wind (mph) Vis. (mi.) Weather Sky Cond. Air Dwpt Max. Min. Relative Humidity Wind Chill (°F) Heat Index (°F) altimeter (in) sea level (mb) 1 hr 3 hr 6 hr
6 hour
Temperature (ºF) Pressure Precipitation (in)